sensor_id;sensor_type;location;lat;lon;timestamp;P1;durP1;ratioP1;P2;durP2;ratioP2
3847;SDS011;1939;48.720;9.166;2022-08-20T00:02:22;3.20;;;2.27;;
3847;SDS011;1939;48.720;9.166;2022-08-20T00:04:48;2.37;;;1.90;;
3847;SDS011;1939;48.720;9.166;2022-08-20T00:07:13;2.80;;;1.97;;
3847;SDS011;1939;48.720;9.166;2022-08-20T00:09:38;2.03;;;1.63;;
3847;SDS011;1939;48.720;9.166;2022-08-20T00:12:05;2.33;;;1.77;;
3847;SDS011;1939;48.720;9.166;2022-08-20T00:14:31;1.80;;;1.70;;
3847;SDS011;1939;48.720;9.166;2022-08-20T00:16:56;5.20;;;1.53;;
3847;SDS011;1939;48.720;9.166;2022-08-20T00:19:21;2.30;;;2.10;;
3847;SDS011;1939;48.720;9.166;2022-08-20T00:21:47;2.17;;;1.87;;
3847;SDS011;1939;48.720;9.166;2022-08-20T00:24:13;3.10;;;1.87;;
3847;SDS011;1939;48.720;9.166;2022-08-20T00:26:38;5.70;;;1.70;;
3847;SDS011;1939;48.720;9.166;2022-08-20T00:29:03;2.73;;;2.00;;
3847;SDS011;1939;48.720;9.166;2022-08-20T00:31:28;2.80;;;2.27;;
3847;SDS011;1939;48.720;9.166;2022-08-20T00:33:54;7.90;;;2.17;;
3847;SDS011;1939;48.720;9.166;2022-08-20T00:36:19;3.03;;;2.03;;
3847;SDS011;1939;48.720;9.166;2022-08-20T00:38:45;2.77;;;2.00;;
3847;SDS011;1939;48.720;9.166;2022-08-20T00:41:11;3.13;;;2.10;;
3847;SDS011;1939;48.720;9.166;2022-08-20T00:46:08;2.22;;;1.90;;
3847;SDS011;1939;48.720;9.166;2022-08-20T00:48:35;6.43;;;2.57;;
3847;SDS011;1939;48.720;9.166;2022-08-20T00:51:02;1.43;;;1.30;;
3847;SDS011;1939;48.720;9.166;2022-08-20T00:53:28;2.67;;;1.80;;
3847;SDS011;1939;48.720;9.166;2022-08-20T00:55:54;2.77;;;2.20;;
3847;SDS011;1939;48.720;9.166;2022-08-20T00:58:19;3.50;;;2.00;;
3847;SDS011;1939;48.720;9.166;2022-08-20T01:00:45;1.70;;;1.60;;
3847;SDS011;1939;48.720;9.166;2022-08-20T01:03:13;1.60;;;1.47;;
3847;SDS011;1939;48.720;9.166;2022-08-20T01:05:39;1.80;;;1.57;;
3847;SDS011;1939;48.720;9.166;2022-08-20T01:08:05;2.13;;;1.73;;
3847;SDS011;1939;48.720;9.166;2022-08-20T01:10:34;4.40;;;1.50;;
3847;SDS011;1939;48.720;9.166;2022-08-20T01:13:00;1.93;;;1.70;;
3847;SDS011;1939;48.720;9.166;2022-08-20T01:15:28;2.50;;;1.80;;
3847;SDS011;1939;48.720;9.166;2022-08-20T01:17:55;4.30;;;1.80;;
3847;SDS011;1939;48.720;9.166;2022-08-20T01:20:38;1.97;;;1.70;;
3847;SDS011;1939;48.720;9.166;2022-08-20T01:23:06;2.30;;;1.93;;
3847;SDS011;1939;48.720;9.166;2022-08-20T01:28:44;1.87;;;1.50;;
3847;SDS011;1939;48.720;9.166;2022-08-20T01:31:13;2.50;;;1.93;;
3847;SDS011;1939;48.720;9.166;2022-08-20T01:33:38;1.73;;;1.60;;
3847;SDS011;1939;48.720;9.166;2022-08-20T01:36:04;1.70;;;1.60;;
3847;SDS011;1939;48.720;9.166;2022-08-20T01:38:30;2.27;;;1.70;;
3847;SDS011;1939;48.720;9.166;2022-08-20T01:43:39;2.20;;;1.97;;
3847;SDS011;1939;48.720;9.166;2022-08-20T01:46:05;1.60;;;1.50;;
3847;SDS011;1939;48.720;9.166;2022-08-20T01:48:32;2.10;;;1.90;;
3847;SDS011;1939;48.720;9.166;2022-08-20T01:51:01;2.33;;;2.13;;
3847;SDS011;1939;48.720;9.166;2022-08-20T01:53:31;2.80;;;1.77;;
3847;SDS011;1939;48.720;9.166;2022-08-20T01:55:58;2.40;;;1.93;;
3847;SDS011;1939;48.720;9.166;2022-08-20T01:58:23;2.17;;;1.97;;
3847;SDS011;1939;48.720;9.166;2022-08-20T02:00:48;3.40;;;1.97;;
3847;SDS011;1939;48.720;9.166;2022-08-20T02:03:13;2.03;;;1.80;;
3847;SDS011;1939;48.720;9.166;2022-08-20T02:05:38;2.63;;;1.90;;
3847;SDS011;1939;48.720;9.166;2022-08-20T02:08:04;2.10;;;1.87;;
3847;SDS011;1939;48.720;9.166;2022-08-20T02:10:29;2.90;;;1.70;;
3847;SDS011;1939;48.720;9.166;2022-08-20T02:12:58;2.03;;;1.83;;
3847;SDS011;1939;48.720;9.166;2022-08-20T02:15:24;2.50;;;2.00;;
3847;SDS011;1939;48.720;9.166;2022-08-20T02:17:49;1.60;;;1.50;;
3847;SDS011;1939;48.720;9.166;2022-08-20T02:20:16;2.50;;;2.10;;
3847;SDS011;1939;48.720;9.166;2022-08-20T02:22:44;2.23;;;2.03;;
3847;SDS011;1939;48.720;9.166;2022-08-20T02:25:10;1.90;;;1.70;;
3847;SDS011;1939;48.720;9.166;2022-08-20T02:27:35;2.00;;;1.73;;
3847;SDS011;1939;48.720;9.166;2022-08-20T02:30:02;3.47;;;2.00;;
3847;SDS011;1939;48.720;9.166;2022-08-20T02:32:27;4.03;;;2.00;;
3847;SDS011;1939;48.720;9.166;2022-08-20T02:34:53;2.17;;;1.97;;
3847;SDS011;1939;48.720;9.166;2022-08-20T02:37:18;2.40;;;1.90;;
3847;SDS011;1939;48.720;9.166;2022-08-20T02:39:44;2.67;;;2.47;;
3847;SDS011;1939;48.720;9.166;2022-08-20T02:42:09;3.77;;;2.07;;
3847;SDS011;1939;48.720;9.166;2022-08-20T02:44:36;3.77;;;1.83;;
3847;SDS011;1939;48.720;9.166;2022-08-20T02:47:01;2.30;;;1.73;;
3847;SDS011;1939;48.720;9.166;2022-08-20T02:49:26;2.33;;;2.13;;
3847;SDS011;1939;48.720;9.166;2022-08-20T02:51:52;2.13;;;1.70;;
3847;SDS011;1939;48.720;9.166;2022-08-20T02:54:17;6.03;;;2.00;;
3847;SDS011;1939;48.720;9.166;2022-08-20T02:56:42;3.20;;;1.50;;
3847;SDS011;1939;48.720;9.166;2022-08-20T02:59:08;2.20;;;1.57;;
3847;SDS011;1939;48.720;9.166;2022-08-20T03:01:33;3.10;;;1.87;;
3847;SDS011;1939;48.720;9.166;2022-08-20T03:03:58;5.27;;;2.40;;
3847;SDS011;1939;48.720;9.166;2022-08-20T03:06:24;2.33;;;1.87;;
3847;SDS011;1939;48.720;9.166;2022-08-20T03:08:49;2.67;;;2.33;;
3847;SDS011;1939;48.720;9.166;2022-08-20T03:11:15;3.00;;;2.10;;
3847;SDS011;1939;48.720;9.166;2022-08-20T03:13:40;6.53;;;2.33;;
3847;SDS011;1939;48.720;9.166;2022-08-20T03:16:06;2.77;;;2.57;;
3847;SDS011;1939;48.720;9.166;2022-08-20T03:18:33;2.40;;;2.20;;
3847;SDS011;1939;48.720;9.166;2022-08-20T03:20:59;3.63;;;2.37;;
3847;SDS011;1939;48.720;9.166;2022-08-20T03:23:24;3.77;;;2.73;;
3847;SDS011;1939;48.720;9.166;2022-08-20T03:25:49;2.57;;;2.10;;
3847;SDS011;1939;48.720;9.166;2022-08-20T03:28:15;2.87;;;2.67;;
3847;SDS011;1939;48.720;9.166;2022-08-20T03:30:41;3.70;;;2.77;;
3847;SDS011;1939;48.720;9.166;2022-08-20T03:33:07;2.43;;;2.23;;
3847;SDS011;1939;48.720;9.166;2022-08-20T03:35:33;3.13;;;2.83;;
3847;SDS011;1939;48.720;9.166;2022-08-20T03:37:59;2.83;;;2.57;;
3847;SDS011;1939;48.720;9.166;2022-08-20T03:40:25;3.13;;;2.90;;
3847;SDS011;1939;48.720;9.166;2022-08-20T03:42:51;3.90;;;2.90;;
3847;SDS011;1939;48.720;9.166;2022-08-20T03:45:17;3.40;;;3.10;;
3847;SDS011;1939;48.720;9.166;2022-08-20T03:47:42;2.57;;;2.37;;
3847;SDS011;1939;48.720;9.166;2022-08-20T03:50:08;3.60;;;3.30;;
3847;SDS011;1939;48.720;9.166;2022-08-20T03:52:34;3.87;;;2.90;;
3847;SDS011;1939;48.720;9.166;2022-08-20T03:55:00;3.30;;;2.90;;
3847;SDS011;1939;48.720;9.166;2022-08-20T03:57:25;3.30;;;3.10;;
3847;SDS011;1939;48.720;9.166;2022-08-20T03:59:51;3.77;;;3.00;;
3847;SDS011;1939;48.720;9.166;2022-08-20T04:02:16;3.50;;;3.20;;
3847;SDS011;1939;48.720;9.166;2022-08-20T04:04:42;6.47;;;3.00;;
3847;SDS011;1939;48.720;9.166;2022-08-20T04:07:08;3.07;;;2.80;;
3847;SDS011;1939;48.720;9.166;2022-08-20T04:09:35;2.80;;;2.60;;
3847;SDS011;1939;48.720;9.166;2022-08-20T04:12:00;3.40;;;3.10;;
3847;SDS011;1939;48.720;9.166;2022-08-20T04:14:25;3.80;;;3.50;;
3847;SDS011;1939;48.720;9.166;2022-08-20T04:16:50;3.90;;;3.60;;
3847;SDS011;1939;48.720;9.166;2022-08-20T04:19:15;3.00;;;2.80;;
3847;SDS011;1939;48.720;9.166;2022-08-20T04:21:41;4.77;;;3.90;;
3847;SDS011;1939;48.720;9.166;2022-08-20T04:24:06;3.10;;;2.80;;
3847;SDS011;1939;48.720;9.166;2022-08-20T04:26:31;7.93;;;3.50;;
3847;SDS011;1939;48.720;9.166;2022-08-20T04:28:56;3.90;;;3.50;;
3847;SDS011;1939;48.720;9.166;2022-08-20T04:31:22;4.80;;;3.70;;
3847;SDS011;1939;48.720;9.166;2022-08-20T04:33:57;3.83;;;3.23;;
3847;SDS011;1939;48.720;9.166;2022-08-20T04:36:22;5.83;;;3.70;;
3847;SDS011;1939;48.720;9.166;2022-08-20T04:38:48;3.57;;;3.27;;
3847;SDS011;1939;48.720;9.166;2022-08-20T04:41:13;3.60;;;3.30;;
3847;SDS011;1939;48.720;9.166;2022-08-20T04:43:39;4.67;;;4.20;;
3847;SDS011;1939;48.720;9.166;2022-08-20T04:46:05;6.53;;;3.53;;
3847;SDS011;1939;48.720;9.166;2022-08-20T04:48:32;4.27;;;3.27;;
3847;SDS011;1939;48.720;9.166;2022-08-20T04:50:58;5.20;;;4.80;;
3847;SDS011;1939;48.720;9.166;2022-08-20T04:53:25;5.63;;;3.60;;
3847;SDS011;1939;48.720;9.166;2022-08-20T04:55:51;5.53;;;3.87;;
3847;SDS011;1939;48.720;9.166;2022-08-20T04:58:18;7.17;;;4.10;;
3847;SDS011;1939;48.720;9.166;2022-08-20T05:00:46;5.30;;;4.80;;
3847;SDS011;1939;48.720;9.166;2022-08-20T05:03:12;7.67;;;4.70;;
3847;SDS011;1939;48.720;9.166;2022-08-20T05:05:37;4.07;;;3.70;;
3847;SDS011;1939;48.720;9.166;2022-08-20T05:08:03;5.67;;;4.60;;
3847;SDS011;1939;48.720;9.166;2022-08-20T05:10:29;4.57;;;4.17;;
3847;SDS011;1939;48.720;9.166;2022-08-20T05:12:54;4.53;;;4.13;;
3847;SDS011;1939;48.720;9.166;2022-08-20T05:15:20;4.40;;;4.00;;
3847;SDS011;1939;48.720;9.166;2022-08-20T05:17:45;3.77;;;3.43;;
3847;SDS011;1939;48.720;9.166;2022-08-20T05:20:12;4.07;;;3.70;;
3847;SDS011;1939;48.720;9.166;2022-08-20T05:22:37;4.47;;;4.10;;
3847;SDS011;1939;48.720;9.166;2022-08-20T05:25:02;8.33;;;4.07;;
3847;SDS011;1939;48.720;9.166;2022-08-20T05:27:28;4.80;;;4.30;;
3847;SDS011;1939;48.720;9.166;2022-08-20T05:29:53;8.23;;;4.50;;
3847;SDS011;1939;48.720;9.166;2022-08-20T05:32:24;6.83;;;4.70;;
3847;SDS011;1939;48.720;9.166;2022-08-20T05:34:49;4.90;;;4.30;;
3847;SDS011;1939;48.720;9.166;2022-08-20T05:37:14;4.37;;;3.97;;
3847;SDS011;1939;48.720;9.166;2022-08-20T05:39:40;8.27;;;5.97;;
3847;SDS011;1939;48.720;9.166;2022-08-20T05:42:06;5.13;;;4.33;;
3847;SDS011;1939;48.720;9.166;2022-08-20T05:44:32;4.87;;;4.40;;
3847;SDS011;1939;48.720;9.166;2022-08-20T05:46:57;4.80;;;4.30;;
3847;SDS011;1939;48.720;9.166;2022-08-20T05:49:22;6.07;;;5.10;;
3847;SDS011;1939;48.720;9.166;2022-08-20T05:51:48;5.20;;;4.57;;
3847;SDS011;1939;48.720;9.166;2022-08-20T05:54:13;7.00;;;5.50;;
3847;SDS011;1939;48.720;9.166;2022-08-20T05:56:39;5.20;;;4.10;;
3847;SDS011;1939;48.720;9.166;2022-08-20T05:59:05;13.23;;;4.37;;
3847;SDS011;1939;48.720;9.166;2022-08-20T06:01:30;5.60;;;4.80;;
3847;SDS011;1939;48.720;9.166;2022-08-20T06:03:56;5.93;;;5.23;;
3847;SDS011;1939;48.720;9.166;2022-08-20T06:06:40;5.07;;;4.20;;
3847;SDS011;1939;48.720;9.166;2022-08-20T06:09:05;7.40;;;4.83;;
3847;SDS011;1939;48.720;9.166;2022-08-20T06:11:30;6.13;;;4.60;;
3847;SDS011;1939;48.720;9.166;2022-08-20T06:13:56;6.83;;;3.83;;
3847;SDS011;1939;48.720;9.166;2022-08-20T06:16:21;4.13;;;3.73;;
3847;SDS011;1939;48.720;9.166;2022-08-20T06:18:46;4.73;;;4.10;;
3847;SDS011;1939;48.720;9.166;2022-08-20T06:21:12;4.37;;;3.97;;
3847;SDS011;1939;48.720;9.166;2022-08-20T06:23:37;4.20;;;3.50;;
3847;SDS011;1939;48.720;9.166;2022-08-20T06:26:02;4.13;;;3.70;;
3847;SDS011;1939;48.720;9.166;2022-08-20T06:28:27;4.63;;;3.90;;
3847;SDS011;1939;48.720;9.166;2022-08-20T06:30:53;4.63;;;4.13;;
3847;SDS011;1939;48.720;9.166;2022-08-20T06:33:18;4.50;;;3.90;;
3847;SDS011;1939;48.720;9.166;2022-08-20T06:35:43;3.83;;;3.43;;
3847;SDS011;1939;48.720;9.166;2022-08-20T06:38:09;4.10;;;3.70;;
3847;SDS011;1939;48.720;9.166;2022-08-20T06:40:35;5.60;;;3.73;;
3847;SDS011;1939;48.720;9.166;2022-08-20T06:43:00;4.43;;;4.03;;
3847;SDS011;1939;48.720;9.166;2022-08-20T06:45:27;5.40;;;4.90;;
3847;SDS011;1939;48.720;9.166;2022-08-20T06:47:53;5.20;;;4.70;;
3847;SDS011;1939;48.720;9.166;2022-08-20T06:50:20;4.40;;;3.80;;
3847;SDS011;1939;48.720;9.166;2022-08-20T06:52:46;6.40;;;4.10;;
3847;SDS011;1939;48.720;9.166;2022-08-20T06:55:12;5.00;;;3.90;;
3847;SDS011;1939;48.720;9.166;2022-08-20T06:57:38;3.87;;;3.47;;
3847;SDS011;1939;48.720;9.166;2022-08-20T07:00:04;4.87;;;4.10;;
3847;SDS011;1939;48.720;9.166;2022-08-20T07:02:30;4.33;;;3.93;;
3847;SDS011;1939;48.720;9.166;2022-08-20T07:04:55;9.00;;;3.97;;
3847;SDS011;1939;48.720;9.166;2022-08-20T07:07:21;5.33;;;3.70;;
3847;SDS011;1939;48.720;9.166;2022-08-20T07:09:46;3.93;;;3.63;;
3847;SDS011;1939;48.720;9.166;2022-08-20T07:12:11;4.50;;;4.10;;
3847;SDS011;1939;48.720;9.166;2022-08-20T07:14:37;3.57;;;3.27;;
3847;SDS011;1939;48.720;9.166;2022-08-20T07:17:02;10.73;;;4.20;;
3847;SDS011;1939;48.720;9.166;2022-08-20T07:19:28;4.60;;;3.60;;
3847;SDS011;1939;48.720;9.166;2022-08-20T07:21:53;6.93;;;4.37;;
3847;SDS011;1939;48.720;9.166;2022-08-20T07:24:18;4.33;;;3.83;;
3847;SDS011;1939;48.720;9.166;2022-08-20T07:26:43;4.90;;;3.63;;
3847;SDS011;1939;48.720;9.166;2022-08-20T07:29:09;4.60;;;3.57;;
3847;SDS011;1939;48.720;9.166;2022-08-20T07:31:34;3.80;;;3.50;;
3847;SDS011;1939;48.720;9.166;2022-08-20T07:34:18;4.40;;;4.00;;
3847;SDS011;1939;48.720;9.166;2022-08-20T07:36:43;6.33;;;3.73;;
3847;SDS011;1939;48.720;9.166;2022-08-20T07:39:09;4.83;;;3.53;;
3847;SDS011;1939;48.720;9.166;2022-08-20T07:41:34;7.23;;;3.87;;
3847;SDS011;1939;48.720;9.166;2022-08-20T07:43:59;5.20;;;3.70;;
3847;SDS011;1939;48.720;9.166;2022-08-20T07:46:24;5.30;;;4.10;;
3847;SDS011;1939;48.720;9.166;2022-08-20T07:48:50;3.90;;;3.50;;
3847;SDS011;1939;48.720;9.166;2022-08-20T07:51:16;8.60;;;7.23;;
3847;SDS011;1939;48.720;9.166;2022-08-20T07:53:42;5.43;;;3.93;;
3847;SDS011;1939;48.720;9.166;2022-08-20T07:56:08;5.53;;;3.87;;
3847;SDS011;1939;48.720;9.166;2022-08-20T07:58:34;3.73;;;3.30;;
3847;SDS011;1939;48.720;9.166;2022-08-20T08:01:00;4.57;;;3.27;;
3847;SDS011;1939;48.720;9.166;2022-08-20T08:03:25;5.23;;;3.50;;
3847;SDS011;1939;48.720;9.166;2022-08-20T08:05:53;4.27;;;3.47;;
3847;SDS011;1939;48.720;9.166;2022-08-20T08:08:21;3.77;;;3.37;;
3847;SDS011;1939;48.720;9.166;2022-08-20T08:10:50;3.53;;;3.00;;
3847;SDS011;1939;48.720;9.166;2022-08-20T08:13:16;3.70;;;3.40;;
3847;SDS011;1939;48.720;9.166;2022-08-20T08:15:43;4.27;;;3.43;;
3847;SDS011;1939;48.720;9.166;2022-08-20T08:18:12;5.10;;;3.53;;
3847;SDS011;1939;48.720;9.166;2022-08-20T08:20:39;4.83;;;3.47;;
3847;SDS011;1939;48.720;9.166;2022-08-20T08:23:05;3.87;;;3.30;;
3847;SDS011;1939;48.720;9.166;2022-08-20T08:25:31;3.20;;;2.90;;
3847;SDS011;1939;48.720;9.166;2022-08-20T08:27:57;4.13;;;3.73;;
3847;SDS011;1939;48.720;9.166;2022-08-20T08:30:24;5.30;;;3.77;;
3847;SDS011;1939;48.720;9.166;2022-08-20T08:32:50;4.23;;;3.60;;
3847;SDS011;1939;48.720;9.166;2022-08-20T08:35:35;5.40;;;3.27;;
3847;SDS011;1939;48.720;9.166;2022-08-20T08:38:01;4.73;;;3.43;;
3847;SDS011;1939;48.720;9.166;2022-08-20T08:40:26;3.33;;;3.10;;
3847;SDS011;1939;48.720;9.166;2022-08-20T08:42:52;2.97;;;2.77;;
3847;SDS011;1939;48.720;9.166;2022-08-20T08:45:22;3.23;;;2.80;;
3847;SDS011;1939;48.720;9.166;2022-08-20T08:47:49;2.00;;;1.80;;
3847;SDS011;1939;48.720;9.166;2022-08-20T08:50:22;2.37;;;2.13;;
3847;SDS011;1939;48.720;9.166;2022-08-20T08:52:49;2.30;;;2.10;;
3847;SDS011;1939;48.720;9.166;2022-08-20T08:55:15;1.90;;;1.80;;
3847;SDS011;1939;48.720;9.166;2022-08-20T08:57:44;2.50;;;1.90;;
3847;SDS011;1939;48.720;9.166;2022-08-20T09:00:11;1.93;;;1.80;;
3847;SDS011;1939;48.720;9.166;2022-08-20T09:02:38;2.00;;;1.87;;
3847;SDS011;1939;48.720;9.166;2022-08-20T09:05:14;1.73;;;1.63;;
3847;SDS011;1939;48.720;9.166;2022-08-20T09:07:40;1.53;;;1.43;;
3847;SDS011;1939;48.720;9.166;2022-08-20T09:10:07;2.07;;;1.97;;
3847;SDS011;1939;48.720;9.166;2022-08-20T09:12:33;2.03;;;1.87;;
3847;SDS011;1939;48.720;9.166;2022-08-20T09:14:58;2.77;;;1.83;;
3847;SDS011;1939;48.720;9.166;2022-08-20T09:17:23;1.53;;;1.40;;
3847;SDS011;1939;48.720;9.166;2022-08-20T09:19:48;1.57;;;1.43;;
3847;SDS011;1939;48.720;9.166;2022-08-20T09:22:17;3.00;;;1.70;;
3847;SDS011;1939;48.720;9.166;2022-08-20T09:24:42;2.10;;;2.00;;
3847;SDS011;1939;48.720;9.166;2022-08-20T09:27:08;2.33;;;2.13;;
3847;SDS011;1939;48.720;9.166;2022-08-20T09:29:33;2.43;;;2.23;;
3847;SDS011;1939;48.720;9.166;2022-08-20T09:32:18;2.80;;;2.60;;
3847;SDS011;1939;48.720;9.166;2022-08-20T09:34:45;4.20;;;2.40;;
3847;SDS011;1939;48.720;9.166;2022-08-20T09:37:10;2.87;;;2.63;;
3847;SDS011;1939;48.720;9.166;2022-08-20T09:39:36;5.83;;;3.00;;
3847;SDS011;1939;48.720;9.166;2022-08-20T09:44:33;3.10;;;2.53;;
3847;SDS011;1939;48.720;9.166;2022-08-20T09:46:58;2.73;;;2.10;;
3847;SDS011;1939;48.720;9.166;2022-08-20T09:49:23;4.70;;;1.87;;
3847;SDS011;1939;48.720;9.166;2022-08-20T09:51:48;2.13;;;1.93;;
3847;SDS011;1939;48.720;9.166;2022-08-20T09:54:14;3.07;;;1.63;;
3847;SDS011;1939;48.720;9.166;2022-08-20T09:56:39;1.93;;;1.70;;
3847;SDS011;1939;48.720;9.166;2022-08-20T09:59:04;2.47;;;2.27;;
3847;SDS011;1939;48.720;9.166;2022-08-20T10:01:29;1.60;;;1.50;;
3847;SDS011;1939;48.720;9.166;2022-08-20T10:03:55;3.57;;;1.67;;
3847;SDS011;1939;48.720;9.166;2022-08-20T10:06:20;2.00;;;1.80;;
3847;SDS011;1939;48.720;9.166;2022-08-20T10:08:45;6.10;;;1.80;;
3847;SDS011;1939;48.720;9.166;2022-08-20T10:11:11;1.90;;;1.80;;
3847;SDS011;1939;48.720;9.166;2022-08-20T10:13:36;1.57;;;1.47;;
3847;SDS011;1939;48.720;9.166;2022-08-20T10:16:01;2.43;;;1.70;;
3847;SDS011;1939;48.720;9.166;2022-08-20T10:18:26;4.90;;;1.50;;
3847;SDS011;1939;48.720;9.166;2022-08-20T10:20:52;2.70;;;1.83;;
3847;SDS011;1939;48.720;9.166;2022-08-20T10:23:17;2.00;;;1.83;;
3847;SDS011;1939;48.720;9.166;2022-08-20T10:25:42;2.17;;;1.70;;
3847;SDS011;1939;48.720;9.166;2022-08-20T10:28:07;1.93;;;1.20;;
3847;SDS011;1939;48.720;9.166;2022-08-20T10:30:33;4.63;;;1.83;;
3847;SDS011;1939;48.720;9.166;2022-08-20T10:32:58;2.07;;;1.77;;
3847;SDS011;1939;48.720;9.166;2022-08-20T10:35:23;2.40;;;2.20;;
3847;SDS011;1939;48.720;9.166;2022-08-20T10:37:48;3.63;;;2.90;;
3847;SDS011;1939;48.720;9.166;2022-08-20T10:40:14;3.07;;;2.07;;
3847;SDS011;1939;48.720;9.166;2022-08-20T10:42:40;2.20;;;2.00;;
3847;SDS011;1939;48.720;9.166;2022-08-20T10:45:05;2.27;;;1.93;;
3847;SDS011;1939;48.720;9.166;2022-08-20T10:47:31;1.40;;;1.30;;
3847;SDS011;1939;48.720;9.166;2022-08-20T10:49:57;4.07;;;1.17;;
3847;SDS011;1939;48.720;9.166;2022-08-20T10:52:23;3.00;;;0.60;;
3847;SDS011;1939;48.720;9.166;2022-08-20T10:54:48;0.77;;;0.43;;
3847;SDS011;1939;48.720;9.166;2022-08-20T10:57:15;1.30;;;0.93;;
3847;SDS011;1939;48.720;9.166;2022-08-20T10:59:41;1.00;;;0.90;;
3847;SDS011;1939;48.720;9.166;2022-08-20T11:02:06;4.40;;;1.03;;
3847;SDS011;1939;48.720;9.166;2022-08-20T11:04:32;0.60;;;0.50;;
3847;SDS011;1939;48.720;9.166;2022-08-20T11:06:57;1.83;;;1.03;;
3847;SDS011;1939;48.720;9.166;2022-08-20T11:09:22;2.20;;;0.90;;
3847;SDS011;1939;48.720;9.166;2022-08-20T11:11:47;0.90;;;0.77;;
3847;SDS011;1939;48.720;9.166;2022-08-20T11:14:12;1.83;;;0.70;;
3847;SDS011;1939;48.720;9.166;2022-08-20T11:16:38;2.03;;;1.10;;
3847;SDS011;1939;48.720;9.166;2022-08-20T11:19:03;0.90;;;0.70;;
3847;SDS011;1939;48.720;9.166;2022-08-20T11:21:28;2.10;;;0.93;;
3847;SDS011;1939;48.720;9.166;2022-08-20T11:23:53;2.50;;;0.80;;
3847;SDS011;1939;48.720;9.166;2022-08-20T11:26:20;1.20;;;0.90;;
3847;SDS011;1939;48.720;9.166;2022-08-20T11:28:46;1.07;;;0.80;;
3847;SDS011;1939;48.720;9.166;2022-08-20T11:31:11;1.47;;;0.70;;
3847;SDS011;1939;48.720;9.166;2022-08-20T11:33:36;3.63;;;0.60;;
3847;SDS011;1939;48.720;9.166;2022-08-20T11:36:01;1.60;;;0.93;;
3847;SDS011;1939;48.720;9.166;2022-08-20T11:38:26;1.43;;;1.00;;
3847;SDS011;1939;48.720;9.166;2022-08-20T11:40:52;1.07;;;0.97;;
3847;SDS011;1939;48.720;9.166;2022-08-20T11:43:17;0.70;;;0.70;;
3847;SDS011;1939;48.720;9.166;2022-08-20T11:45:43;10.73;;;0.80;;
3847;SDS011;1939;48.720;9.166;2022-08-20T11:48:09;0.90;;;0.70;;
3847;SDS011;1939;48.720;9.166;2022-08-20T11:50:34;1.60;;;0.90;;
3847;SDS011;1939;48.720;9.166;2022-08-20T11:52:59;0.70;;;0.60;;
3847;SDS011;1939;48.720;9.166;2022-08-20T11:55:24;1.00;;;0.83;;
3847;SDS011;1939;48.720;9.166;2022-08-20T11:57:49;1.57;;;1.07;;
3847;SDS011;1939;48.720;9.166;2022-08-20T12:00:17;1.57;;;1.10;;
3847;SDS011;1939;48.720;9.166;2022-08-20T12:02:44;1.53;;;0.80;;
3847;SDS011;1939;48.720;9.166;2022-08-20T12:05:09;1.07;;;0.90;;
3847;SDS011;1939;48.720;9.166;2022-08-20T12:07:35;1.13;;;0.73;;
3847;SDS011;1939;48.720;9.166;2022-08-20T12:10:00;1.50;;;0.83;;
3847;SDS011;1939;48.720;9.166;2022-08-20T12:12:25;0.70;;;0.70;;
3847;SDS011;1939;48.720;9.166;2022-08-20T12:14:51;0.80;;;0.80;;
3847;SDS011;1939;48.720;9.166;2022-08-20T12:17:19;1.00;;;0.90;;
3847;SDS011;1939;48.720;9.166;2022-08-20T12:19:47;1.03;;;1.00;;
3847;SDS011;1939;48.720;9.166;2022-08-20T12:22:12;4.30;;;1.10;;
3847;SDS011;1939;48.720;9.166;2022-08-20T12:24:37;6.27;;;1.33;;
3847;SDS011;1939;48.720;9.166;2022-08-20T12:29:35;1.10;;;0.90;;
3847;SDS011;1939;48.720;9.166;2022-08-20T12:32:00;1.13;;;0.80;;
3847;SDS011;1939;48.720;9.166;2022-08-20T12:34:25;1.03;;;0.97;;
3847;SDS011;1939;48.720;9.166;2022-08-20T12:36:58;1.50;;;1.00;;
3847;SDS011;1939;48.720;9.166;2022-08-20T12:39:24;0.70;;;0.67;;
3847;SDS011;1939;48.720;9.166;2022-08-20T12:41:49;1.00;;;0.67;;
3847;SDS011;1939;48.720;9.166;2022-08-20T12:44:14;1.13;;;0.80;;
3847;SDS011;1939;48.720;9.166;2022-08-20T12:46:39;1.13;;;0.90;;
3847;SDS011;1939;48.720;9.166;2022-08-20T12:49:04;2.30;;;1.23;;
3847;SDS011;1939;48.720;9.166;2022-08-20T12:51:30;0.73;;;0.70;;
3847;SDS011;1939;48.720;9.166;2022-08-20T12:53:55;0.90;;;0.70;;
3847;SDS011;1939;48.720;9.166;2022-08-20T12:56:20;0.87;;;0.87;;
3847;SDS011;1939;48.720;9.166;2022-08-20T12:58:45;1.87;;;0.60;;
3847;SDS011;1939;48.720;9.166;2022-08-20T13:01:10;0.73;;;0.57;;
3847;SDS011;1939;48.720;9.166;2022-08-20T13:03:36;0.97;;;0.97;;
3847;SDS011;1939;48.720;9.166;2022-08-20T13:06:01;2.40;;;1.40;;
3847;SDS011;1939;48.720;9.166;2022-08-20T13:08:26;1.00;;;0.90;;
3847;SDS011;1939;48.720;9.166;2022-08-20T13:10:52;1.87;;;1.77;;
3847;SDS011;1939;48.720;9.166;2022-08-20T13:13:17;3.23;;;0.90;;
3847;SDS011;1939;48.720;9.166;2022-08-20T13:15:43;4.67;;;1.40;;
3847;SDS011;1939;48.720;9.166;2022-08-20T13:18:08;2.93;;;1.50;;
3847;SDS011;1939;48.720;9.166;2022-08-20T13:20:34;3.00;;;1.53;;
3847;SDS011;1939;48.720;9.166;2022-08-20T13:22:59;2.20;;;1.47;;
3847;SDS011;1939;48.720;9.166;2022-08-20T13:25:24;1.60;;;1.50;;
3847;SDS011;1939;48.720;9.166;2022-08-20T13:27:53;1.87;;;1.50;;
3847;SDS011;1939;48.720;9.166;2022-08-20T13:30:19;2.07;;;1.40;;
3847;SDS011;1939;48.720;9.166;2022-08-20T13:32:44;2.17;;;1.70;;
3847;SDS011;1939;48.720;9.166;2022-08-20T13:35:10;3.20;;;1.80;;
3847;SDS011;1939;48.720;9.166;2022-08-20T13:37:36;1.90;;;1.53;;
3847;SDS011;1939;48.720;9.166;2022-08-20T13:40:01;2.40;;;1.57;;
3847;SDS011;1939;48.720;9.166;2022-08-20T13:42:27;1.80;;;1.23;;
3847;SDS011;1939;48.720;9.166;2022-08-20T13:44:52;1.83;;;1.20;;
3847;SDS011;1939;48.720;9.166;2022-08-20T13:47:25;2.30;;;1.50;;
3847;SDS011;1939;48.720;9.166;2022-08-20T13:49:58;5.80;;;1.70;;
3847;SDS011;1939;48.720;9.166;2022-08-20T13:52:24;2.60;;;1.97;;
3847;SDS011;1939;48.720;9.166;2022-08-20T13:54:50;3.00;;;1.87;;
3847;SDS011;1939;48.720;9.166;2022-08-20T13:57:16;3.77;;;2.00;;
3847;SDS011;1939;48.720;9.166;2022-08-20T13:59:43;1.90;;;1.50;;
3847;SDS011;1939;48.720;9.166;2022-08-20T14:02:10;1.67;;;1.20;;
3847;SDS011;1939;48.720;9.166;2022-08-20T14:04:35;2.83;;;1.90;;
3847;SDS011;1939;48.720;9.166;2022-08-20T14:07:14;2.30;;;1.40;;
3847;SDS011;1939;48.720;9.166;2022-08-20T14:09:41;2.60;;;1.13;;
3847;SDS011;1939;48.720;9.166;2022-08-20T14:12:06;3.97;;;1.30;;
3847;SDS011;1939;48.720;9.166;2022-08-20T14:14:32;1.53;;;1.20;;
3847;SDS011;1939;48.720;9.166;2022-08-20T14:16:57;4.20;;;1.53;;
3847;SDS011;1939;48.720;9.166;2022-08-20T14:19:22;1.40;;;1.30;;
3847;SDS011;1939;48.720;9.166;2022-08-20T14:21:48;1.80;;;1.43;;
3847;SDS011;1939;48.720;9.166;2022-08-20T14:24:13;3.37;;;1.13;;
3847;SDS011;1939;48.720;9.166;2022-08-20T14:26:38;1.70;;;1.33;;
3847;SDS011;1939;48.720;9.166;2022-08-20T14:29:03;1.70;;;1.10;;
3847;SDS011;1939;48.720;9.166;2022-08-20T14:31:28;1.47;;;1.37;;
3847;SDS011;1939;48.720;9.166;2022-08-20T14:33:54;2.10;;;1.00;;
3847;SDS011;1939;48.720;9.166;2022-08-20T14:36:19;1.40;;;1.20;;
3847;SDS011;1939;48.720;9.166;2022-08-20T14:38:44;1.03;;;0.93;;
3847;SDS011;1939;48.720;9.166;2022-08-20T14:41:09;4.10;;;1.60;;
3847;SDS011;1939;48.720;9.166;2022-08-20T14:43:34;4.23;;;1.27;;
3847;SDS011;1939;48.720;9.166;2022-08-20T14:46:00;1.60;;;1.40;;
3847;SDS011;1939;48.720;9.166;2022-08-20T14:48:25;5.80;;;1.50;;
3847;SDS011;1939;48.720;9.166;2022-08-20T14:50:52;1.30;;;1.10;;
3847;SDS011;1939;48.720;9.166;2022-08-20T14:53:19;3.00;;;1.13;;
3847;SDS011;1939;48.720;9.166;2022-08-20T14:55:46;2.37;;;1.53;;
3847;SDS011;1939;48.720;9.166;2022-08-20T14:58:11;2.40;;;1.50;;
3847;SDS011;1939;48.720;9.166;2022-08-20T15:00:37;6.77;;;2.00;;
3847;SDS011;1939;48.720;9.166;2022-08-20T15:03:02;2.00;;;1.43;;
3847;SDS011;1939;48.720;9.166;2022-08-20T15:05:27;2.17;;;1.70;;
3847;SDS011;1939;48.720;9.166;2022-08-20T15:07:52;2.90;;;2.53;;
3847;SDS011;1939;48.720;9.166;2022-08-20T15:10:21;3.70;;;1.80;;
3847;SDS011;1939;48.720;9.166;2022-08-20T15:12:46;3.87;;;1.80;;
3847;SDS011;1939;48.720;9.166;2022-08-20T15:15:12;2.50;;;2.30;;
3847;SDS011;1939;48.720;9.166;2022-08-20T15:17:39;2.87;;;1.80;;
3847;SDS011;1939;48.720;9.166;2022-08-20T15:20:07;2.97;;;2.37;;
3847;SDS011;1939;48.720;9.166;2022-08-20T15:22:36;3.70;;;2.53;;